Time;durP1;ratioP1;P1;durP2;ratioP2;P2;SDS_P1;SDS_P2;PMS_P1;PMS_P2;Temp;Humidity;BMP_temperature;BMP_pressure;BME280_temperature;BME280_humidity;BME280_pressure;Samples;Min_cycle;Max_cycle;Signal;HPM_P1;HPM_P2
2024/04/12 00:01:03;;;;;;;3.88;3.03;;;;;;;14.56;79.17;101269.75;6920209;25;20045;-76
2024/04/12 00:04:08;;;;;;;4.82;3.00;;;;;;;14.56;79.24;101265.34;6953746;25;20442;-68
2024/04/12 00:07:13;;;;;;;9.25;3.80;;;;;;;14.36;79.50;101271.72;6953546;25;19996;-67
2024/04/12 00:10:16;;;;;;;6.60;3.58;;;;;;;14.50;79.23;101266.53;6919441;25;20063;-68
2024/04/12 00:13:18;;;;;;;6.53;3.28;;;;;;;14.42;80.03;101271.38;6952471;25;20067;-67
2024/04/12 00:16:25;;;;;;;7.68;3.70;;;;;;;14.44;79.97;101264.25;6919276;25;20007;-67
2024/04/12 00:19:30;;;;;;;8.35;3.13;;;;;;;14.54;78.99;101264.56;6953336;25;20002;-69
2024/04/12 00:22:32;;;;;;;7.68;3.55;;;;;;;14.52;79.53;101263.81;6920449;25;20406;-76
2024/04/12 00:25:33;;;;;;;4.78;3.35;;;;;;;14.52;79.08;101264.66;6920175;25;19991;-76
2024/04/12 00:28:34;;;;;;;9.70;3.22;;;;;;;14.55;79.27;101270.66;6919980;25;20007;-76
2024/04/12 00:31:42;;;;;;;5.95;3.58;;;;;;;14.47;78.66;101258.81;6920058;25;20004;-76
2024/04/12 00:34:47;;;;;;;6.78;3.42;;;;;;;14.35;79.49;101262.16;6952741;25;20000;-76
2024/04/12 00:37:52;;;;;;;5.60;3.28;;;;;;;14.44;78.97;101260.78;6919787;25;19993;-75
2024/04/12 00:40:54;;;;;;;5.20;3.17;;;;;;;14.33;78.90;101253.53;6951759;25;20370;-76
2024/04/12 00:43:57;;;;;;;7.20;3.30;;;;;;;14.43;79.04;101254.69;6919959;25;19988;-77
2024/04/12 00:47:04;;;;;;;6.05;3.42;;;;;;;14.40;78.77;101249.59;6919438;25;20044;-68
2024/04/12 00:50:06;;;;;;;7.15;3.60;;;;;;;14.38;78.67;101251.47;6952404;25;20000;-68
2024/04/12 00:53:09;;;;;;;6.38;3.53;;;;;;;14.50;77.71;101255.19;6919259;25;20000;-68
2024/04/12 00:56:15;;;;;;;7.25;3.38;;;;;;;14.44;77.57;101250.28;6952519;25;20029;-68
2024/04/12 00:59:16;;;;;;;5.90;3.20;;;;;;;14.29;78.07;101255.50;6951989;25;20458;-68
2024/04/12 01:02:21;;;;;;;7.40;3.80;;;;;;;14.28;78.46;101251.16;6918888;25;20007;-68
2024/04/12 01:05:22;;;;;;;6.32;3.47;;;;;;;14.41;77.82;101253.94;6919394;25;20398;-68
2024/04/12 01:08:26;;;;;;;4.40;3.13;;;;;;;14.29;78.25;101250.25;6951164;25;20000;-68
2024/04/12 01:11:31;;;;;;;4.30;2.95;;;;;;;14.29;77.99;101246.78;6917758;25;19992;-67
2024/04/12 01:14:33;;;;;;;12.45;3.78;;;;;;;14.32;77.57;101238.69;6919159;25;20338;-67
2024/04/12 01:17:37;;;;;;;6.25;3.30;;;;;;;14.21;77.29;101249.84;6951617;25;20000;-67
2024/04/12 01:20:39;;;;;;;5.63;3.20;;;;;;;14.30;77.02;101237.94;6949882;25;20410;-68
2024/04/12 01:23:42;;;;;;;;;;;;;;;14.38;76.72;101242.75;6920140;25;20002;-67
2024/04/12 01:26:44;;;;;;;4.63;3.20;;;;;;;14.25;76.33;101238.22;6919263;25;19934;-67
2024/04/12 01:29:46;;;;;;;;;;;;;;;14.23;76.63;101239.25;6919588;25;20024;-67
2024/04/12 01:32:52;;;;;;;4.47;3.10;;;;;;;14.21;76.59;101241.97;6918972;25;20363;-67
2024/04/12 01:35:55;;;;;;;6.72;3.40;;;;;;;14.28;76.48;101240.66;6918905;25;20009;-67
2024/04/12 01:39:00;;;;;;;10.80;3.15;;;;;;;14.22;75.83;101235.75;6951756;25;20078;-67
2024/04/12 01:42:04;;;;;;;8.23;3.17;;;;;;;14.09;76.02;101232.16;6918788;25;19992;-68
2024/04/12 01:45:14;;;;;;;5.55;3.38;;;;;;;14.16;75.97;101238.72;6951611;25;20346;-68
2024/04/12 01:48:17;;;;;;;5.63;2.92;;;;;;;14.00;75.92;101235.28;6951661;25;20008;-67
2024/04/12 01:51:24;;;;;;;4.63;2.95;;;;;;;14.00;75.39;101237.91;6951599;25;19992;-67
2024/04/12 01:54:32;;;;;;;5.82;3.05;;;;;;;13.91;76.07;101234.88;6951738;25;20002;-67
2024/04/12 01:57:41;;;;;;;4.35;2.70;;;;;;;14.05;74.97;101231.47;6951462;25;20556;-68
2024/04/12 02:00:41;;;;;;;8.50;3.58;;;;;;;14.02;74.74;101229.03;6951878;25;20070;-76
2024/04/12 02:03:44;;;;;;;5.72;2.72;;;;;;;14.17;74.60;101235.19;6951627;25;20003;-76
2024/04/12 02:06:48;;;;;;;3.83;2.90;;;;;;;14.07;73.66;101231.41;6918514;25;19996;-76
2024/04/12 02:09:52;;;;;;;6.90;2.72;;;;;;;13.96;73.56;101226.75;6951305;25;20642;-76
2024/04/12 02:12:54;;;;;;;6.15;2.88;;;;;;;13.98;73.60;101227.53;6918305;25;19996;-76
2024/04/12 02:15:56;;;;;;;4.27;2.50;;;;;;;14.06;73.18;101216.56;6951341;25;20031;-75
2024/04/12 02:18:58;;;;;;;8.02;2.60;;;;;;;14.02;72.82;101231.66;6951065;25;20067;-76
2024/04/12 02:22:03;;;;;;;8.88;2.92;;;;;;;13.97;73.62;101220.56;6917936;25;20525;-76
2024/04/12 02:25:13;;;;;;;6.85;2.95;;;;;;;13.95;73.41;101229.47;6950824;25;20450;-76
2024/04/12 02:28:16;;;;;;;5.57;2.80;;;;;;;13.79;73.23;101224.22;6950634;25;20486;-76
2024/04/12 02:31:19;;;;;;;5.57;2.70;;;;;;;13.89;73.12;101222.78;6950709;25;20010;-76
2024/04/12 02:34:24;;;;;;;7.00;2.53;;;;;;;13.87;72.87;101230.72;6922039;25;20067;-68
2024/04/12 02:37:25;;;;;;;5.25;2.30;;;;;;;13.76;73.37;101230.50;6954997;25;20071;-68
2024/04/12 02:40:26;;;;;;;54.05;4.07;;;;;;;13.80;73.12;101232.03;6955369;25;20000;-75
2024/04/12 02:43:32;;;;;;;18.83;3.38;;;;;;;13.78;72.97;101233.03;6955356;25;20004;-67
2024/04/12 02:46:33;;;;;;;9.32;2.75;;;;;;;13.68;73.57;101241.41;6948916;25;20010;-67
2024/04/12 02:49:34;;;;;;;9.20;2.97;;;;;;;13.74;73.66;101236.78;6915219;25;20001;-67
2024/04/12 02:52:40;;;;;;;51.10;5.22;;;;;;;13.73;73.01;101238.53;6908297;25;20451;-67
2024/04/12 02:55:44;;;;;;;11.88;3.35;;;;;;;13.86;72.73;101236.09;6908072;25;20008;-67
2024/04/12 02:58:48;;;;;;;123.22;7.32;;;;;;;13.75;72.90;101234.03;6906170;25;20025;-68
2024/04/12 03:01:54;;;;;;;15.10;3.22;;;;;;;13.69;72.93;101237.88;6907910;25;20001;-68
2024/04/12 03:04:55;;;;;;;10.65;3.17;;;;;;;13.66;73.38;101238.03;6875005;25;19989;-67
2024/04/12 03:07:56;;;;;;;2.90;2.23;;;;;;;13.64;73.22;101239.88;6875077;25;19997;-76
2024/04/12 03:11:14;;;;;;;15.48;3.45;;;;;;;13.56;73.50;101236.84;6875150;25;20217;-76
2024/04/12 03:14:15;;;;;;;10.88;2.90;;;;;;;13.65;73.44;101236.34;6911873;25;19999;-67
2024/04/12 03:17:18;;;;;;;14.20;2.47;;;;;;;13.63;72.76;101235.59;6907339;25;20372;-76
2024/04/12 03:20:19;;;;;;;12.60;2.92;;;;;;;13.69;72.79;101231.75;6928777;25;20524;-76
2024/04/12 03:23:20;;;;;;;14.43;2.95;;;;;;;13.58;72.73;101242.84;6953577;25;20007;-68
2024/04/12 03:26:22;;;;;;;10.97;2.60;;;;;;;13.72;72.59;101241.25;6906082;25;20338;-68
2024/04/12 03:29:22;;;;;;;9.07;2.60;;;;;;;13.76;71.75;101241.00;6954420;25;20000;-67
2024/04/12 03:32:32;;;;;;;5.27;2.87;;;;;;;13.60;71.68;101235.75;6887420;25;19997;-69
2024/04/12 03:35:33;;;;;;;4.70;2.33;;;;;;;13.75;71.14;101235.81;6907449;25;19996;-68
2024/04/12 03:38:36;;;;;;;6.00;2.42;;;;;;;13.71;71.11;101235.13;6874355;25;20013;-69
2024/04/12 03:41:43;;;;;;;5.13;2.35;;;;;;;13.57;71.13;101232.44;6907199;25;19989;-68
2024/04/12 03:44:44;;;;;;;2.85;2.00;;;;;;;13.67;70.50;101234.50;6906108;25;20000;-68
2024/04/12 03:47:45;;;;;;;10.60;1.98;;;;;;;13.67;70.32;101236.25;6911821;25;19992;-68
2024/04/12 03:50:48;;;;;;;6.77;2.30;;;;;;;13.71;70.05;101237.75;6874119;25;20000;-68
2024/04/12 03:54:10;;;;;;;2.78;1.60;;;;;;;13.81;70.05;101253.84;6914024;25;20338;-68
2024/04/12 03:57:12;;;;;;;3.35;1.95;;;;;;;13.78;69.49;101252.25;6914773;25;20053;-68
2024/04/12 04:00:13;;;;;;;3.63;2.20;;;;;;;13.82;69.17;101252.94;6906625;25;20007;-67
2024/04/12 04:03:30;;;;;;;7.57;1.80;;;;;;;13.86;69.10;101260.53;6953168;25;20000;-67
2024/04/12 04:06:36;;;;;;;8.32;2.17;;;;;;;13.75;69.29;101255.03;6939045;25;20001;-67
2024/04/12 04:09:39;;;;;;;4.03;2.13;;;;;;;13.73;70.05;101258.66;6873557;25;20361;-67
2024/04/12 04:12:45;;;;;;;4.75;2.00;;;;;;;13.74;69.29;101268.25;6873779;25;20000;-67
2024/04/12 04:15:50;;;;;;;5.63;1.85;;;;;;;13.86;69.13;101270.19;6873706;25;20004;-67
2024/04/12 04:18:57;;;;;;;8.70;3.03;;;;;;;13.79;68.98;101269.66;6906370;25;19993;-67
2024/04/12 04:21:58;;;;;;;4.57;2.10;;;;;;;13.80;69.73;101270.53;6906222;25;20064;-67
2024/04/12 04:24:59;;;;;;;3.50;1.88;;;;;;;13.84;68.91;101265.03;6913839;25;20000;-76
2024/04/12 04:28:09;;;;;;;3.00;1.70;;;;;;;13.64;69.34;101268.72;6916403;25;20492;-76
2024/04/12 04:31:11;;;;;;;3.50;1.85;;;;;;;13.96;68.29;101279.25;6941383;25;20007;-76
2024/04/12 04:34:13;;;;;;;3.50;1.73;;;;;;;13.87;68.97;101274.50;6916241;25;19996;-76
2024/04/12 04:37:14;;;;;;;;;;;;;;;13.86;68.59;101278.06;6925779;25;20697;-76
2024/04/12 04:40:18;;;;;;;4.57;2.00;;;;;;;13.79;68.67;101280.16;6933809;25;19930;-76
2024/04/12 04:43:23;;;;;;;3.35;1.98;;;;;;;14.00;68.94;101280.75;6937418;25;20004;-76
2024/04/12 04:46:29;;;;;;;2.47;1.75;;;;;;;13.91;69.13;101276.00;6914794;25;20431;-76
2024/04/12 04:49:32;;;;;;;3.95;1.85;;;;;;;14.01;68.59;101287.69;6934592;25;20014;-76
2024/04/12 04:52:37;;;;;;;3.28;1.90;;;;;;;14.17;68.58;101281.59;6919181;25;20345;-76
2024/04/12 04:55:38;;;;;;;8.15;2.00;;;;;;;14.12;68.61;101279.22;6919646;25;20323;-76
2024/04/12 04:58:43;;;;;;;2.83;1.67;;;;;;;14.08;69.17;101283.81;6919755;25;20006;-76
2024/04/12 05:01:50;;;;;;;10.05;1.92;;;;;;;14.10;68.85;101296.81;6917055;25;20068;-76
2024/04/12 05:04:53;;;;;;;4.80;2.15;;;;;;;14.16;67.97;101290.38;6912801;25;20074;-76
2024/04/12 05:07:55;;;;;;;2.97;2.28;;;;;;;14.32;67.96;101286.81;6931309;25;20008;-76
2024/04/12 05:10:59;;;;;;;6.00;2.00;;;;;;;14.21;67.86;101291.00;6918931;25;20000;-76
2024/04/12 05:14:13;;;;;;;4.80;2.13;;;;;;;14.22;67.29;101290.03;6919885;25;19992;-76
2024/04/12 05:17:15;;;;;;;2.80;1.95;;;;;;;14.35;67.35;101292.81;6952660;25;20000;-69
2024/04/12 05:20:20;;;;;;;4.25;2.10;;;;;;;14.38;66.96;101293.50;6905549;25;20025;-68
2024/04/12 05:23:23;;;;;;;5.72;2.25;;;;;;;14.44;67.06;101287.88;6915243;25;19996;-67
2024/04/12 05:26:24;;;;;;;5.90;2.28;;;;;;;14.56;66.87;101296.88;6915502;25;20000;-67
2024/04/12 05:29:28;;;;;;;6.35;2.30;;;;;;;14.61;66.24;101302.69;6916971;25;20097;-67
2024/04/12 05:32:32;;;;;;;7.70;1.90;;;;;;;14.61;66.23;101293.97;6948313;25;20024;-67
2024/04/12 05:35:34;;;;;;;4.37;1.73;;;;;;;14.86;66.21;101307.34;6909058;25;19997;-67
2024/04/12 05:38:36;;;;;;;4.20;2.25;;;;;;;14.99;65.87;101304.00;6904372;25;20009;-76
2024/04/12 05:41:44;;;;;;;10.63;1.97;;;;;;;15.06;65.10;101297.44;6871804;25;20011;-76
2024/04/12 05:44:46;;;;;;;5.68;1.88;;;;;;;14.91;64.95;101307.94;6904540;25;20352;-76
2024/04/12 05:47:54;;;;;;;4.25;2.15;;;;;;;14.97;65.15;101306.72;6871771;25;20000;-76
2024/04/12 05:50:58;;;;;;;2.65;1.85;;;;;;;14.88;65.17;101305.47;6871535;25;20011;-76
2024/04/12 05:54:10;;;;;;;3.55;2.00;;;;;;;15.16;64.58;101314.34;6872104;25;20062;-76
2024/04/12 05:57:12;;;;;;;4.60;2.33;;;;;;;15.14;64.10;101318.88;6904580;25;19993;-76
2024/04/12 06:00:23;;;;;;;3.88;2.22;;;;;;;15.37;63.08;101309.56;6871549;25;20388;-76
2024/04/12 06:03:25;;;;;;;4.18;2.30;;;;;;;15.60;63.02;101312.56;6904323;25;20037;-76
2024/04/12 06:06:30;;;;;;;10.23;2.17;;;;;;;15.64;63.11;101307.03;6871684;25;20025;-76
2024/04/12 06:09:34;;;;;;;5.68;2.30;;;;;;;15.67;62.42;101304.22;6876159;25;19989;-76
2024/04/12 06:12:35;;;;;;;7.07;2.17;;;;;;;15.90;61.52;101310.69;6908693;25;20004;-77
2024/04/12 06:15:36;;;;;;;6.90;2.25;;;;;;;15.98;61.49;101310.19;6876602;25;19989;-76
2024/04/12 06:18:40;;;;;;;11.65;2.20;;;;;;;15.86;59.82;101306.56;6908568;25;20442;-76
2024/04/12 06:21:45;;;;;;;4.68;2.33;;;;;;;16.08;60.66;101315.69;6875878;25;20064;-76
2024/04/12 06:24:49;;;;;;;8.50;2.30;;;;;;;16.10;59.37;101325.22;6908534;25;19997;-68
2024/04/12 06:27:54;;;;;;;5.57;2.15;;;;;;;16.19;59.08;101313.25;6875569;25;20003;-68
2024/04/12 06:30:59;;;;;;;6.93;2.78;;;;;;;16.02;58.70;101311.69;6875118;25;20028;-67
2024/04/12 06:34:12;;;;;;;3.28;1.90;;;;;;;16.39;58.67;101319.84;6875810;25;19997;-66
2024/04/12 06:37:15;;;;;;;5.38;2.42;;;;;;;16.50;58.92;101319.13;6875422;25;19992;-67
2024/04/12 06:40:18;;;;;;;15.27;2.05;;;;;;;16.48;57.87;101313.13;6875612;25;20008;-76
2024/04/12 06:43:23;;;;;;;14.02;2.72;;;;;;;16.48;57.67;101311.34;6908164;25;20052;-76
2024/04/12 06:46:27;;;;;;;15.20;2.35;;;;;;;16.86;57.01;101320.28;6875600;25;20003;-76
2024/04/12 06:49:28;;;;;;;20.45;2.60;;;;;;;16.80;56.65;101318.03;6908434;25;20003;-76
2024/04/12 06:52:34;;;;;;;6.93;2.60;;;;;;;17.06;55.48;101329.50;6908313;25;20451;-76
2024/04/12 06:55:46;;;;;;;3.67;1.83;;;;;;;17.11;55.73;101320.34;6876032;25;19989;-76
2024/04/12 06:58:48;;;;;;;6.35;2.35;;;;;;;17.14;55.43;101324.53;6909125;25;19993;-76
2024/04/12 07:01:49;;;;;;;6.70;1.83;;;;;;;17.41;55.18;101327.06;6908020;25;20511;-76
2024/04/12 07:04:55;;;;;;;2.78;1.85;;;;;;;17.41;54.80;101334.13;6875280;25;19996;-68
2024/04/12 07:07:57;;;;;;;6.13;2.00;;;;;;;17.60;54.35;101333.69;6875294;25;20328;-68
2024/04/12 07:11:06;;;;;;;8.50;2.28;;;;;;;17.80;54.06;101329.66;6875648;25;20015;-68
2024/04/12 07:14:07;;;;;;;3.15;2.47;;;;;;;17.93;53.18;101325.19;6875035;25;20403;-68
2024/04/12 07:17:28;;;;;;;3.65;1.85;;;;;;;17.78;52.75;101328.91;6874097;25;20002;-68
2024/04/12 07:20:36;;;;;;;4.10;2.05;;;;;;;18.23;53.86;101322.13;6873388;25;20004;-68
2024/04/12 07:23:37;;;;;;;7.07;1.88;;;;;;;18.13;52.18;101326.41;6907712;25;19997;-68
2024/04/12 07:26:39;;;;;;;5.32;1.88;;;;;;;18.18;52.54;101336.63;6874858;25;20527;-68
2024/04/12 07:29:43;;;;;;;4.47;1.60;;;;;;;18.21;51.89;101341.72;6874920;25;20001;-68
2024/04/12 07:32:44;;;;;;;5.30;1.90;;;;;;;18.58;51.97;101347.75;6875161;25;20522;-68
2024/04/12 07:35:48;;;;;;;2.95;1.50;;;;;;;18.17;51.00;101333.16;6875445;25;20008;-76
2024/04/12 07:38:50;;;;;;;10.48;2.17;;;;;;;18.51;51.13;101331.53;6907183;25;20080;-68
2024/04/12 07:41:51;;;;;;;4.88;2.17;;;;;;;18.45;50.52;101344.31;6907410;25;20008;-68
2024/04/12 07:44:52;;;;;;;5.70;1.98;;;;;;;18.53;50.86;101339.31;6874583;25;20060;-76
2024/04/12 07:48:11;;;;;;;10.77;2.15;;;;;;;18.78;50.44;101342.78;6908179;25;20028;-76
2024/04/12 07:51:12;;;;;;;6.35;1.70;;;;;;;19.14;50.82;101331.22;6907101;25;20064;-76
2024/04/12 07:54:18;;;;;;;6.28;1.92;;;;;;;19.20;49.22;101341.34;6907243;25;20000;-76
2024/04/12 07:57:25;;;;;;;8.02;1.85;;;;;;;19.34;50.12;101332.34;6907150;25;20025;-68
2024/04/12 08:00:35;;;;;;;2.90;1.83;;;;;;;18.95;50.01;101337.09;6907158;25;20002;-67
2024/04/12 08:03:40;;;;;;;3.78;2.03;;;;;;;19.28;49.27;101335.47;6907119;25;20126;-68
2024/04/12 08:09:45;;;;;;;5.57;2.10;;;;;;;19.65;49.12;101332.59;6906977;25;19992;-68
2024/04/12 08:12:49;;;;;;;;;;;;;;;19.07;48.89;101349.38;6874765;25;20004;-68
2024/04/12 08:15:52;;;;;;;3.97;1.95;;;;;;;19.42;48.67;101343.19;6906631;25;19923;-68
2024/04/12 08:18:57;;;;;;;5.97;1.63;;;;;;;19.56;48.84;101334.16;6873762;25;19992;-68
2024/04/12 08:22:02;;;;;;;3.08;1.70;;;;;;;19.58;48.56;101326.94;6873636;25;20072;-68
2024/04/12 08:25:06;;;;;;;3.28;1.55;;;;;;;19.70;47.89;101327.75;6873574;25;20004;-69
2024/04/12 08:28:08;;;;;;;3.15;1.65;;;;;;;19.97;47.61;101318.59;6873644;25;20003;-69
2024/04/12 08:31:18;;;;;;;3.42;1.67;;;;;;;20.46;47.97;101318.06;6905672;25;20001;-68
2024/04/12 08:34:20;;;;;;;5.82;1.90;;;;;;;20.89;46.51;101313.69;6906143;25;20041;-69
2024/04/12 08:37:30;;;;;;;7.03;1.90;;;;;;;21.18;46.32;101305.88;6906236;25;19993;-69
2024/04/12 08:40:37;;;;;;;3.17;1.67;;;;;;;20.81;45.42;101313.47;6906267;25;20007;-67
2024/04/12 08:43:46;;;;;;;3.70;1.60;;;;;;;20.69;46.27;101316.22;6873349;25;20001;-68
2024/04/12 08:46:49;;;;;;;5.13;1.98;;;;;;;21.24;45.72;101312.47;6873706;25;20802;-69
2024/04/12 08:49:56;;;;;;;4.80;2.40;;;;;;;20.67;45.23;101312.84;6873412;25;20389;-68
2024/04/12 08:53:04;;;;;;;6.93;1.77;;;;;;;20.68;45.01;101319.00;6873441;25;19996;-76
2024/04/12 08:56:06;;;;;;;4.82;2.03;;;;;;;20.97;44.82;101313.88;6873610;25;20007;-77
2024/04/12 08:59:07;;;;;;;5.97;2.00;;;;;;;21.08;44.50;101311.13;6873708;25;20458;-77
2024/04/12 09:02:13;;;;;;;4.70;2.03;;;;;;;21.35;44.13;101309.72;6904797;25;20040;-77
2024/04/12 09:05:24;;;;;;;4.00;1.80;;;;;;;21.37;43.60;101306.94;6905956;25;19993;-76
2024/04/12 09:08:28;;;;;;;15.88;4.60;;;;;;;22.07;42.43;101307.84;6873506;25;19991;-76
2024/04/12 09:11:31;;;;;;;2.53;1.60;;;;;;;21.19;43.12;101302.25;6905808;25;19997;-76
2024/04/12 09:14:35;;;;;;;5.35;1.50;;;;;;;21.49;43.00;101311.22;6905992;25;20007;-77
2024/04/12 09:17:36;;;;;;;6.55;1.80;;;;;;;21.40;42.23;101309.34;6905739;25;20049;-77
2024/04/12 09:20:40;;;;;;;2.97;1.52;;;;;;;22.03;41.89;101298.47;6905495;25;19993;-77
2024/04/12 09:23:50;;;;;;;2.88;1.65;;;;;;;22.46;41.91;101300.75;6872830;25;20458;-76
2024/04/12 09:26:58;;;;;;;5.22;1.90;;;;;;;21.97;40.96;101299.03;6905638;25;20060;-77
2024/04/12 09:32:50;;;;;;;3.13;1.85;;;;;;;22.52;42.57;101310.00;6872607;25;20021;-77
2024/04/12 09:33:26;;;;;;;2.50;1.70;;;;;;;22.59;41.42;101307.59;6905255;25;20011;-76
2024/04/12 09:36:39;;;;;;;7.82;1.60;;;;;;;23.16;39.86;101297.84;6905188;25;20334;-77
2024/04/12 09:46:23;;;;;;;2.92;1.75;;;;;;;22.63;39.62;101285.06;6858728;25;20001;-68
2024/04/12 10:40:04;;;;;;;3.90;1.23;;;;;;;22.67;36.74;101243.91;6811710;26;20329;-69
2024/04/12 10:43:06;;;;;;;2.78;1.40;;;;;;;23.38;37.75;101232.75;6811548;26;20587;-69
2024/04/12 10:46:10;;;;;;;5.82;1.35;;;;;;;23.04;36.08;101237.78;6811553;26;20002;-68
2024/04/12 10:49:12;;;;;;;2.75;1.55;;;;;;;22.79;34.94;101232.09;6809996;26;20085;-68
2024/04/12 10:52:16;;;;;;;1.25;1.10;;;;;;;22.54;35.44;101228.25;6811638;26;20043;-68
2024/04/12 10:55:19;;;;;;;2.97;1.50;;;;;;;23.06;35.24;101219.84;6814138;26;20008;-68
2024/04/12 10:58:23;;;;;;;2.35;1.15;;;;;;;23.18;34.61;101216.03;6814488;26;19994;-68
2024/04/12 11:01:26;;;;;;;1.40;1.00;;;;;;;23.71;33.84;101220.63;6815156;26;20022;-69
2024/04/12 11:05:05;;;;;;;2.03;1.27;;;;;;;23.79;34.10;101219.91;6819844;26;20075;-68
2024/04/12 11:07:58;;;;;;;3.63;1.23;;;;;;;23.72;33.63;101216.97;6847092;26;20125;-67
2024/04/12 11:11:15;;;;;;;3.38;1.15;;;;;;;23.38;33.44;101211.44;6847039;25;20002;-69
2024/04/12 11:14:27;;;;;;;4.82;1.65;;;;;;;24.31;33.83;101213.84;6815760;26;20047;-69
2024/04/12 11:31:15;;;;;;;4.13;2.22;;;;;;;24.39;33.90;101191.75;6861229;26;20032;-68
2024/04/12 11:34:19;;;;;;;4.63;1.75;;;;;;;24.18;31.32;101186.75;6859238;26;20093;-68
2024/04/12 11:37:24;;;;;;;2.60;1.30;;;;;;;23.86;31.01;101193.47;6878949;25;20037;-69
2024/04/12 11:40:25;;;;;;;3.38;1.60;;;;;;;23.98;30.66;101189.59;6907390;25;20003;-68
2024/04/12 11:43:26;;;;;;;3.33;1.50;;;;;;;24.13;32.05;101177.41;6874831;25;19993;-67
2024/04/12 11:46:29;;;;;;;6.40;1.67;;;;;;;23.80;31.13;101180.75;6874585;25;20004;-68
2024/04/12 11:49:48;;;;;;;3.03;1.40;;;;;;;23.89;29.46;101185.19;6907596;25;20454;-68
2024/04/12 11:52:54;;;;;;;1.65;1.10;;;;;;;24.26;28.75;101168.16;6907483;25;19997;-68
2024/04/12 11:55:55;;;;;;;4.70;1.15;;;;;;;24.40;28.91;101169.38;6906697;25;20016;-68
2024/04/12 11:58:58;;;;;;;3.17;1.08;;;;;;;24.37;29.80;101173.22;6874321;25;20022;-68
2024/04/12 12:02:00;;;;;;;1.25;0.80;;;;;;;23.64;28.27;101170.75;6914382;25;20032;-70
2024/04/12 12:05:04;;;;;;;1.73;1.23;;;;;;;24.33;29.12;101156.69;6952845;25;20331;-70
2024/04/12 12:08:06;;;;;;;4.80;1.00;;;;;;;23.40;29.72;101161.53;6920662;25;20360;-68
2024/04/12 12:11:10;;;;;;;;;;;;;;;24.27;30.59;101161.81;6921235;25;20002;-68
2024/04/12 12:14:13;;;;;;;2.63;1.20;;;;;;;24.35;29.65;101156.53;6953531;25;20365;-69
2024/04/12 12:17:18;;;;;;;2.28;1.00;;;;;;;24.86;30.31;101152.16;6955140;25;20067;-69
2024/04/12 12:20:20;;;;;;;5.68;1.08;;;;;;;24.74;29.19;101145.44;6957814;25;20474;-69
2024/04/12 12:23:21;;;;;;;1.92;1.15;;;;;;;25.11;28.54;101147.75;6952982;25;20000;-69
2024/04/12 12:26:22;;;;;;;2.83;1.17;;;;;;;25.03;27.48;101142.38;6920029;25;19996;-69
2024/04/12 12:29:25;;;;;;;3.13;1.00;;;;;;;24.60;28.73;101146.03;6920150;25;20007;-68
2024/04/12 12:32:25;;;;;;;1.83;0.60;;;;;;;24.57;28.78;101144.53;6920152;25;19992;-69
2024/04/12 12:35:26;;;;;;;1.37;0.90;;;;;;;23.72;28.00;101136.19;6919935;25;20015;-68
2024/04/12 12:38:27;;;;;;;3.08;0.90;;;;;;;24.02;28.05;101136.81;6953271;25;19988;-68
2024/04/12 12:41:30;;;;;;;2.63;0.90;;;;;;;24.37;29.38;101125.19;6952969;25;20036;-69
2024/04/12 12:44:34;;;;;;;3.58;0.90;;;;;;;24.36;29.27;101125.34;6952673;25;20000;-68
2024/04/12 12:47:35;;;;;;;1.30;0.80;;;;;;;23.71;27.70;101130.03;6953342;25;20438;-68
2024/04/12 12:50:38;;;;;;;1.60;0.90;;;;;;;23.41;26.72;101117.94;6953037;25;20443;-68
2024/04/12 12:53:39;;;;;;;1.17;0.68;;;;;;;23.89;26.29;101111.41;6953073;25;20055;-69
2024/04/12 12:56:40;;;;;;;2.38;1.10;;;;;;;23.78;26.12;101111.63;6952772;25;20011;-68
2024/04/12 12:59:43;;;;;;;6.78;1.50;;;;;;;24.19;26.88;101108.44;6920028;25;20391;-68
2024/04/12 13:02:44;;;;;;;6.07;1.08;;;;;;;23.62;27.29;101101.66;6919493;25;20071;-68
2024/04/12 13:05:45;;;;;;;;;;;;;;;24.65;29.30;101103.72;6953300;25;19992;-69
2024/04/12 13:08:51;;;;;;;2.88;0.80;;;;;;;24.25;24.88;101102.47;6952865;25;19990;-68
2024/04/12 13:11:52;;;;;;;2.38;0.68;;;;;;;24.13;25.39;101099.22;6919837;25;19999;-69
2024/04/12 13:14:53;;;;;;;2.70;0.80;;;;;;;23.93;27.03;101101.25;6919269;25;20000;-68
2024/04/12 13:17:56;;;;;;;2.72;0.90;;;;;;;24.37;26.61;101085.19;6952525;25;20059;-68
2024/04/12 13:20:57;;;;;;;2.45;1.05;;;;;;;24.62;27.08;101096.84;6952116;25;19992;-69
2024/04/12 13:23:59;;;;;;;7.68;1.60;;;;;;;23.91;27.31;101080.09;6952367;25;20334;-69
2024/04/12 13:27:00;;;;;;;2.60;1.00;;;;;;;23.66;29.39;101083.50;6952245;25;20067;-68
2024/04/12 13:30:09;;;;;;;2.43;1.07;;;;;;;23.60;27.09;101086.81;6952381;25;20398;-69
2024/04/12 13:33:14;;;;;;;2.88;1.10;;;;;;;23.93;27.11;101079.94;6952263;25;20003;-68
2024/04/12 13:36:19;;;;;;;1.60;0.73;;;;;;;23.98;29.08;101076.81;6952073;25;20053;-69
2024/04/12 13:39:20;;;;;;;2.40;0.80;;;;;;;23.77;28.79;101066.50;6952123;25;19992;-68
2024/04/12 13:42:25;;;;;;;1.20;0.80;;;;;;;24.03;28.53;101064.69;6918550;25;20092;-69
2024/04/12 13:52:08;;;;;;;1.92;0.95;;;;;;;24.12;30.72;101044.25;6951696;25;19999;-70
2024/04/12 13:55:11;;;;;;;0.88;0.60;;;;;;;24.14;29.18;101043.06;6951548;25;20004;-69
2024/04/12 13:58:12;;;;;;;19.70;1.42;;;;;;;23.80;27.25;101051.00;6917554;25;20016;-69
2024/04/12 14:01:13;;;;;;;0.93;0.70;;;;;;;23.64;28.75;101041.06;6951270;25;20059;-70
2024/04/12 14:04:18;;;;;;;1.35;0.88;;;;;;;23.68;30.00;101042.44;6918301;25;19995;-68
2024/04/12 14:07:20;;;;;;;1.95;1.00;;;;;;;23.90;30.35;101025.09;6951085;25;20000;-68
2024/04/12 14:10:23;;;;;;;3.55;0.80;;;;;;;24.11;29.67;101029.22;6951743;25;19992;-68
2024/04/12 14:13:25;;;;;;;2.78;1.20;;;;;;;23.95;31.10;101029.97;6917742;25;20006;-68
2024/04/12 14:16:32;;;;;;;2.40;1.05;;;;;;;23.72;30.42;101026.94;6950897;25;20000;-68
2024/04/12 14:19:33;;;;;;;3.95;1.10;;;;;;;23.63;30.86;101022.56;6950854;25;19993;-68
2024/04/12 14:22:34;;;;;;;1.98;0.98;;;;;;;23.82;31.04;101021.56;6917893;25;20067;-69
2024/04/12 14:25:37;;;;;;;2.27;1.10;;;;;;;23.66;30.34;101022.25;6950977;25;20450;-69
2024/04/12 14:28:40;;;;;;;4.18;1.23;;;;;;;23.50;30.54;101020.31;6952782;25;19992;-68
2024/04/12 14:31:41;;;;;;;1.05;0.90;;;;;;;23.21;31.97;101020.56;6922201;25;20083;-68
2024/04/12 14:34:44;;;;;;;2.25;1.17;;;;;;;23.41;33.35;101021.22;6922322;25;19999;-68
2024/04/12 14:37:46;;;;;;;6.25;1.10;;;;;;;23.28;32.47;101017.13;6922284;25;20000;-68
2024/04/12 14:40:52;;;;;;;;;;;;;;;23.21;33.01;101012.59;6955727;25;20023;-68
2024/04/12 14:43:53;;;;;;;5.63;1.20;;;;;;;23.41;33.43;101011.44;6922138;25;19926;-67
2024/04/12 14:46:56;;;;;;;1.83;1.13;;;;;;;23.50;33.08;101007.81;6955463;25;20015;-69
2024/04/12 14:49:57;;;;;;;1.42;1.10;;;;;;;23.54;33.64;101009.19;6955005;25;20011;-67
2024/04/12 14:52:57;;;;;;;3.40;1.10;;;;;;;23.58;32.88;100998.22;6954913;25;20435;-68
2024/04/12 14:55:58;;;;;;;2.17;1.10;;;;;;;23.07;33.07;101006.78;6904500;25;20079;-68
2024/04/12 14:59:03;;;;;;;1.00;0.90;;;;;;;22.90;33.86;101003.09;6891386;25;19996;-68
2024/04/12 15:02:05;;;;;;;4.90;1.00;;;;;;;23.41;34.03;100994.59;6909413;25;19997;-68
2024/04/12 15:48:25;;;;;;;1.67;1.20;;;;;;;22.59;35.32;100960.06;6907443;25;20003;-69
2024/04/12 15:51:27;;;;;;;1.25;0.90;;;;;;;22.61;35.03;100960.75;6876636;25;20102;-69
2024/04/12 15:54:29;;;;;;;5.75;2.60;;;;;;;22.77;35.37;100952.06;6903350;25;20016;-68
2024/04/12 16:10:50;;;;;;;1.67;1.05;;;;;;;22.33;37.20;100944.78;6906947;25;19997;-68
2024/04/12 16:13:51;;;;;;;3.38;1.08;;;;;;;22.30;37.78;100953.09;6907626;25;19996;-68
2024/04/12 16:16:53;;;;;;;3.63;1.13;;;;;;;22.28;39.04;100952.41;6945429;25;20069;-68
2024/04/12 16:19:57;;;;;;;4.63;1.30;;;;;;;21.91;39.30;100952.41;6920622;25;19995;-69
2024/04/12 16:22:59;;;;;;;6.70;1.27;;;;;;;21.92;39.43;100944.25;6920239;25;20040;-68
2024/04/12 16:26:02;;;;;;;5.55;1.40;;;;;;;21.92;39.30;100946.09;6953442;25;19992;-68
2024/04/12 16:29:07;;;;;;;1.65;1.17;;;;;;;22.00;40.20;100940.88;6919840;25;20375;-68
2024/04/12 16:32:09;;;;;;;2.38;1.20;;;;;;;21.91;40.34;100937.28;6953357;25;20067;-67
2024/04/12 16:35:12;;;;;;;3.15;1.30;;;;;;;21.89;41.01;100944.56;6953328;25;19992;-69